sensor_id;sensor_type;location;lat;lon;timestamp;P1;durP1;ratioP1;P2;durP2;ratioP2
35693;SDS011;21812;55.536;37.664;2023-07-13T00:01:51;2.17;;;1.60;;
35693;SDS011;21812;55.536;37.664;2023-07-13T00:04:18;3.78;;;1.70;;
35693;SDS011;21812;55.536;37.664;2023-07-13T00:06:46;3.25;;;1.35;;
35693;SDS011;21812;55.536;37.664;2023-07-13T00:09:13;2.47;;;1.70;;
35693;SDS011;21812;55.536;37.664;2023-07-13T00:11:42;3.75;;;2.00;;
35693;SDS011;21812;55.536;37.664;2023-07-13T00:14:08;1.67;;;1.40;;
35693;SDS011;21812;55.536;37.664;2023-07-13T00:16:36;3.85;;;1.90;;
35693;SDS011;21812;55.536;37.664;2023-07-13T00:19:03;2.35;;;1.38;;
35693;SDS011;21812;55.536;37.664;2023-07-13T00:21:29;2.00;;;1.52;;
35693;SDS011;21812;55.536;37.664;2023-07-13T00:23:55;3.72;;;1.60;;
35693;SDS011;21812;55.536;37.664;2023-07-13T00:26:20;2.45;;;1.90;;
35693;SDS011;21812;55.536;37.664;2023-07-13T00:28:47;2.85;;;2.00;;
35693;SDS011;21812;55.536;37.664;2023-07-13T00:31:13;1.40;;;1.30;;
35693;SDS011;21812;55.536;37.664;2023-07-13T00:33:42;2.92;;;1.90;;
35693;SDS011;21812;55.536;37.664;2023-07-13T00:36:09;2.22;;;1.33;;
35693;SDS011;21812;55.536;37.664;2023-07-13T00:38:35;2.15;;;1.52;;
35693;SDS011;21812;55.536;37.664;2023-07-13T00:41:02;2.10;;;1.67;;
35693;SDS011;21812;55.536;37.664;2023-07-13T00:43:29;3.15;;;1.63;;
35693;SDS011;21812;55.536;37.664;2023-07-13T00:48:23;1.83;;;1.38;;
35693;SDS011;21812;55.536;37.664;2023-07-13T00:50:53;3.28;;;2.33;;
35693;SDS011;21812;55.536;37.664;2023-07-13T00:53:22;2.38;;;1.30;;
35693;SDS011;21812;55.536;37.664;2023-07-13T00:55:50;2.50;;;1.85;;
35693;SDS011;21812;55.536;37.664;2023-07-13T00:58:16;3.80;;;1.92;;
35693;SDS011;21812;55.536;37.664;2023-07-13T01:00:43;4.68;;;1.70;;
35693;SDS011;21812;55.536;37.664;2023-07-13T01:03:10;1.95;;;1.75;;
35693;SDS011;21812;55.536;37.664;2023-07-13T01:05:36;1.85;;;1.40;;
35693;SDS011;21812;55.536;37.664;2023-07-13T01:08:03;1.98;;;1.70;;
35693;SDS011;21812;55.536;37.664;2023-07-13T01:10:32;4.55;;;2.20;;
35693;SDS011;21812;55.536;37.664;2023-07-13T01:13:05;3.13;;;1.67;;
35693;SDS011;21812;55.536;37.664;2023-07-13T01:15:55;2.78;;;1.67;;
35693;SDS011;21812;55.536;37.664;2023-07-13T01:18:21;10.73;;;2.25;;
35693;SDS011;21812;55.536;37.664;2023-07-13T01:20:57;2.85;;;1.40;;
35693;SDS011;21812;55.536;37.664;2023-07-13T01:23:25;2.33;;;1.48;;
35693;SDS011;21812;55.536;37.664;2023-07-13T01:25:52;2.83;;;1.67;;
35693;SDS011;21812;55.536;37.664;2023-07-13T01:28:18;1.75;;;1.65;;
35693;SDS011;21812;55.536;37.664;2023-07-13T01:30:45;2.55;;;2.15;;
35693;SDS011;21812;55.536;37.664;2023-07-13T01:33:12;4.63;;;1.58;;
35693;SDS011;21812;55.536;37.664;2023-07-13T01:35:44;3.97;;;1.60;;
35693;SDS011;21812;55.536;37.664;2023-07-13T01:38:11;1.60;;;1.50;;
35693;SDS011;21812;55.536;37.664;2023-07-13T01:40:40;3.33;;;1.88;;
35693;SDS011;21812;55.536;37.664;2023-07-13T01:43:06;3.00;;;1.80;;
35693;SDS011;21812;55.536;37.664;2023-07-13T01:45:32;2.45;;;1.67;;
35693;SDS011;21812;55.536;37.664;2023-07-13T01:47:58;4.60;;;1.90;;
35693;SDS011;21812;55.536;37.664;2023-07-13T01:50:24;3.53;;;1.90;;
35693;SDS011;21812;55.536;37.664;2023-07-13T01:52:52;2.35;;;1.75;;
35693;SDS011;21812;55.536;37.664;2023-07-13T01:55:18;2.38;;;1.40;;
35693;SDS011;21812;55.536;37.664;2023-07-13T01:57:45;4.30;;;1.67;;
35693;SDS011;21812;55.536;37.664;2023-07-13T02:00:12;1.35;;;1.25;;
35693;SDS011;21812;55.536;37.664;2023-07-13T02:02:42;3.50;;;1.77;;
35693;SDS011;21812;55.536;37.664;2023-07-13T02:05:10;2.95;;;1.52;;
35693;SDS011;21812;55.536;37.664;2023-07-13T02:07:37;4.57;;;2.05;;
35693;SDS011;21812;55.536;37.664;2023-07-13T02:10:03;3.70;;;1.70;;
35693;SDS011;21812;55.536;37.664;2023-07-13T02:12:30;2.63;;;2.10;;
35693;SDS011;21812;55.536;37.664;2023-07-13T02:14:55;3.72;;;2.05;;
35693;SDS011;21812;55.536;37.664;2023-07-13T02:17:21;3.78;;;1.73;;
35693;SDS011;21812;55.536;37.664;2023-07-13T02:19:47;3.35;;;1.83;;
35693;SDS011;21812;55.536;37.664;2023-07-13T02:22:13;4.22;;;1.85;;
35693;SDS011;21812;55.536;37.664;2023-07-13T02:24:39;2.50;;;2.00;;
35693;SDS011;21812;55.536;37.664;2023-07-13T02:27:05;2.22;;;1.58;;
35693;SDS011;21812;55.536;37.664;2023-07-13T02:29:31;3.58;;;2.05;;
35693;SDS011;21812;55.536;37.664;2023-07-13T02:31:56;2.53;;;1.90;;
35693;SDS011;21812;55.536;37.664;2023-07-13T02:34:23;6.65;;;2.72;;
35693;SDS011;21812;55.536;37.664;2023-07-13T02:36:48;2.45;;;1.75;;
35693;SDS011;21812;55.536;37.664;2023-07-13T02:39:14;2.47;;;2.28;;
35693;SDS011;21812;55.536;37.664;2023-07-13T02:41:41;3.15;;;1.80;;
35693;SDS011;21812;55.536;37.664;2023-07-13T02:44:07;4.53;;;2.13;;
35693;SDS011;21812;55.536;37.664;2023-07-13T02:46:35;2.20;;;1.65;;
35693;SDS011;21812;55.536;37.664;2023-07-13T02:49:02;3.67;;;2.10;;
35693;SDS011;21812;55.536;37.664;2023-07-13T02:51:29;4.53;;;2.20;;
35693;SDS011;21812;55.536;37.664;2023-07-13T02:53:55;3.67;;;1.67;;
35693;SDS011;21812;55.536;37.664;2023-07-13T02:56:22;5.35;;;2.00;;
35693;SDS011;21812;55.536;37.664;2023-07-13T02:58:50;3.90;;;1.98;;
35693;SDS011;21812;55.536;37.664;2023-07-13T03:01:16;4.20;;;1.90;;
35693;SDS011;21812;55.536;37.664;2023-07-13T03:03:47;2.40;;;2.00;;
35693;SDS011;21812;55.536;37.664;2023-07-13T03:06:15;3.33;;;2.55;;
35693;SDS011;21812;55.536;37.664;2023-07-13T03:08:46;3.15;;;2.00;;
35693;SDS011;21812;55.536;37.664;2023-07-13T03:11:16;2.67;;;2.03;;
35693;SDS011;21812;55.536;37.664;2023-07-13T03:13:44;5.00;;;2.20;;
35693;SDS011;21812;55.536;37.664;2023-07-13T03:16:12;7.13;;;3.30;;
35693;SDS011;21812;55.536;37.664;2023-07-13T03:18:38;4.50;;;2.97;;
35693;SDS011;21812;55.536;37.664;2023-07-13T03:21:07;4.32;;;2.05;;
35693;SDS011;21812;55.536;37.664;2023-07-13T03:23:33;10.48;;;2.42;;
35693;SDS011;21812;55.536;37.664;2023-07-13T03:26:07;3.42;;;2.05;;
35693;SDS011;21812;55.536;37.664;2023-07-13T03:28:35;3.28;;;2.20;;
35693;SDS011;21812;55.536;37.664;2023-07-13T03:31:06;7.68;;;2.88;;
35693;SDS011;21812;55.536;37.664;2023-07-13T03:33:37;12.02;;;3.17;;
35693;SDS011;21812;55.536;37.664;2023-07-13T03:36:04;3.47;;;2.10;;
35693;SDS011;21812;55.536;37.664;2023-07-13T03:38:32;3.80;;;1.83;;
35693;SDS011;21812;55.536;37.664;2023-07-13T03:41:01;4.00;;;2.20;;
35693;SDS011;21812;55.536;37.664;2023-07-13T03:43:27;3.75;;;2.22;;
35693;SDS011;21812;55.536;37.664;2023-07-13T03:45:53;3.58;;;1.77;;
35693;SDS011;21812;55.536;37.664;2023-07-13T03:48:19;3.88;;;2.03;;
35693;SDS011;21812;55.536;37.664;2023-07-13T03:50:45;2.53;;;2.13;;
35693;SDS011;21812;55.536;37.664;2023-07-13T03:53:12;3.17;;;1.98;;
35693;SDS011;21812;55.536;37.664;2023-07-13T03:55:37;2.63;;;1.63;;
35693;SDS011;21812;55.536;37.664;2023-07-13T04:01:10;2.35;;;2.10;;
35693;SDS011;21812;55.536;37.664;2023-07-13T04:03:38;2.10;;;1.80;;
35693;SDS011;21812;55.536;37.664;2023-07-13T04:06:05;4.15;;;1.90;;
35693;SDS011;21812;55.536;37.664;2023-07-13T04:08:33;3.08;;;1.90;;
35693;SDS011;21812;55.536;37.664;2023-07-13T04:11:00;3.50;;;2.20;;
35693;SDS011;21812;55.536;37.664;2023-07-13T04:13:27;5.47;;;1.92;;
35693;SDS011;21812;55.536;37.664;2023-07-13T04:15:53;9.35;;;1.80;;
35693;SDS011;21812;55.536;37.664;2023-07-13T04:18:19;4.82;;;2.47;;
35693;SDS011;21812;55.536;37.664;2023-07-13T04:20:46;3.55;;;2.08;;
35693;SDS011;21812;55.536;37.664;2023-07-13T04:23:12;7.35;;;2.20;;
35693;SDS011;21812;55.536;37.664;2023-07-13T04:25:39;3.00;;;1.83;;
35693;SDS011;21812;55.536;37.664;2023-07-13T04:28:08;4.15;;;1.90;;
35693;SDS011;21812;55.536;37.664;2023-07-13T04:30:34;6.05;;;2.30;;
35693;SDS011;21812;55.536;37.664;2023-07-13T04:33:00;2.50;;;2.28;;
35693;SDS011;21812;55.536;37.664;2023-07-13T04:35:25;3.78;;;2.15;;
35693;SDS011;21812;55.536;37.664;2023-07-13T04:37:51;5.35;;;1.73;;
35693;SDS011;21812;55.536;37.664;2023-07-13T04:40:17;6.68;;;2.35;;
35693;SDS011;21812;55.536;37.664;2023-07-13T04:42:44;3.33;;;2.38;;
35693;SDS011;21812;55.536;37.664;2023-07-13T04:45:11;5.30;;;1.80;;
35693;SDS011;21812;55.536;37.664;2023-07-13T04:47:38;3.58;;;2.10;;
35693;SDS011;21812;55.536;37.664;2023-07-13T04:50:05;3.83;;;1.90;;
35693;SDS011;21812;55.536;37.664;2023-07-13T04:52:31;2.85;;;1.73;;
35693;SDS011;21812;55.536;37.664;2023-07-13T04:54:58;4.03;;;1.80;;
35693;SDS011;21812;55.536;37.664;2023-07-13T04:57:25;4.80;;;1.83;;
35693;SDS011;21812;55.536;37.664;2023-07-13T04:59:52;2.88;;;1.85;;
35693;SDS011;21812;55.536;37.664;2023-07-13T05:02:20;4.63;;;1.88;;
35693;SDS011;21812;55.536;37.664;2023-07-13T05:04:46;2.33;;;1.63;;
35693;SDS011;21812;55.536;37.664;2023-07-13T05:07:13;4.38;;;2.13;;
35693;SDS011;21812;55.536;37.664;2023-07-13T05:09:38;5.95;;;1.95;;
35693;SDS011;21812;55.536;37.664;2023-07-13T05:12:06;4.57;;;1.60;;
35693;SDS011;21812;55.536;37.664;2023-07-13T05:14:33;3.47;;;2.15;;
35693;SDS011;21812;55.536;37.664;2023-07-13T05:17:00;4.45;;;2.13;;
35693;SDS011;21812;55.536;37.664;2023-07-13T05:19:25;6.30;;;2.00;;
35693;SDS011;21812;55.536;37.664;2023-07-13T05:21:52;4.05;;;1.95;;
35693;SDS011;21812;55.536;37.664;2023-07-13T05:24:17;2.55;;;1.77;;
35693;SDS011;21812;55.536;37.664;2023-07-13T05:26:44;4.97;;;1.77;;
35693;SDS011;21812;55.536;37.664;2023-07-13T05:29:10;2.83;;;1.95;;
35693;SDS011;21812;55.536;37.664;2023-07-13T05:31:36;3.70;;;1.77;;
35693;SDS011;21812;55.536;37.664;2023-07-13T05:34:01;4.50;;;1.85;;
35693;SDS011;21812;55.536;37.664;2023-07-13T05:36:27;3.25;;;1.77;;
35693;SDS011;21812;55.536;37.664;2023-07-13T05:38:54;2.53;;;1.55;;
35693;SDS011;21812;55.536;37.664;2023-07-13T05:41:20;2.22;;;1.63;;
35693;SDS011;21812;55.536;37.664;2023-07-13T05:43:45;4.90;;;1.85;;
35693;SDS011;21812;55.536;37.664;2023-07-13T05:46:11;1.75;;;1.60;;
35693;SDS011;21812;55.536;37.664;2023-07-13T05:48:37;3.67;;;2.00;;
35693;SDS011;21812;55.536;37.664;2023-07-13T05:51:03;3.03;;;1.90;;
35693;SDS011;21812;55.536;37.664;2023-07-13T05:53:28;3.13;;;1.92;;
35693;SDS011;21812;55.536;37.664;2023-07-13T05:55:54;2.65;;;1.63;;
35693;SDS011;21812;55.536;37.664;2023-07-13T05:58:21;2.67;;;2.28;;
35693;SDS011;21812;55.536;37.664;2023-07-13T06:00:47;6.28;;;2.30;;
35693;SDS011;21812;55.536;37.664;2023-07-13T06:03:13;6.75;;;2.20;;
35693;SDS011;21812;55.536;37.664;2023-07-13T06:05:41;6.28;;;2.03;;
35693;SDS011;21812;55.536;37.664;2023-07-13T06:08:07;7.40;;;2.30;;
35693;SDS011;21812;55.536;37.664;2023-07-13T06:10:36;17.17;;;2.40;;
35693;SDS011;21812;55.536;37.664;2023-07-13T06:13:02;3.33;;;2.13;;
35693;SDS011;21812;55.536;37.664;2023-07-13T06:15:28;3.47;;;2.30;;
35693;SDS011;21812;55.536;37.664;2023-07-13T06:17:54;2.20;;;1.83;;
35693;SDS011;21812;55.536;37.664;2023-07-13T06:20:20;9.77;;;2.15;;
35693;SDS011;21812;55.536;37.664;2023-07-13T06:22:46;3.83;;;1.73;;
35693;SDS011;21812;55.536;37.664;2023-07-13T06:25:11;2.35;;;1.95;;
35693;SDS011;21812;55.536;37.664;2023-07-13T06:27:37;4.13;;;2.10;;
35693;SDS011;21812;55.536;37.664;2023-07-13T06:30:03;2.67;;;1.67;;
35693;SDS011;21812;55.536;37.664;2023-07-13T06:32:30;1.73;;;1.58;;
35693;SDS011;21812;55.536;37.664;2023-07-13T06:34:56;2.97;;;2.10;;
35693;SDS011;21812;55.536;37.664;2023-07-13T06:37:22;4.40;;;1.92;;
35693;SDS011;21812;55.536;37.664;2023-07-13T06:39:47;4.85;;;2.20;;
35693;SDS011;21812;55.536;37.664;2023-07-13T06:42:13;19.15;;;2.58;;
35693;SDS011;21812;55.536;37.664;2023-07-13T06:44:39;3.47;;;1.90;;
35693;SDS011;21812;55.536;37.664;2023-07-13T06:47:04;3.38;;;1.80;;
35693;SDS011;21812;55.536;37.664;2023-07-13T06:49:31;2.08;;;1.70;;
35693;SDS011;21812;55.536;37.664;2023-07-13T06:51:56;4.15;;;1.83;;
35693;SDS011;21812;55.536;37.664;2023-07-13T06:54:22;3.35;;;1.73;;
35693;SDS011;21812;55.536;37.664;2023-07-13T06:56:48;6.82;;;2.88;;
35693;SDS011;21812;55.536;37.664;2023-07-13T06:59:13;4.75;;;1.98;;
35693;SDS011;21812;55.536;37.664;2023-07-13T07:01:39;4.38;;;1.98;;
35693;SDS011;21812;55.536;37.664;2023-07-13T07:04:05;2.70;;;1.77;;
35693;SDS011;21812;55.536;37.664;2023-07-13T07:06:30;2.45;;;1.83;;
35693;SDS011;21812;55.536;37.664;2023-07-13T07:08:56;3.90;;;1.80;;
35693;SDS011;21812;55.536;37.664;2023-07-13T07:11:23;4.05;;;2.10;;
35693;SDS011;21812;55.536;37.664;2023-07-13T07:13:50;4.03;;;1.50;;
35693;SDS011;21812;55.536;37.664;2023-07-13T07:16:17;6.72;;;2.08;;
35693;SDS011;21812;55.536;37.664;2023-07-13T07:18:43;3.97;;;2.10;;
35693;SDS011;21812;55.536;37.664;2023-07-13T07:21:09;2.38;;;1.75;;
35693;SDS011;21812;55.536;37.664;2023-07-13T07:23:35;4.50;;;2.17;;
35693;SDS011;21812;55.536;37.664;2023-07-13T07:26:01;3.15;;;1.92;;
35693;SDS011;21812;55.536;37.664;2023-07-13T07:28:27;4.55;;;1.65;;
35693;SDS011;21812;55.536;37.664;2023-07-13T07:30:57;4.65;;;2.00;;
35693;SDS011;21812;55.536;37.664;2023-07-13T07:33:23;4.95;;;1.90;;
35693;SDS011;21812;55.536;37.664;2023-07-13T07:35:50;4.60;;;1.73;;
35693;SDS011;21812;55.536;37.664;2023-07-13T07:38:16;2.85;;;2.03;;
35693;SDS011;21812;55.536;37.664;2023-07-13T07:40:42;4.15;;;1.90;;
35693;SDS011;21812;55.536;37.664;2023-07-13T07:43:09;4.35;;;1.67;;
35693;SDS011;21812;55.536;37.664;2023-07-13T07:45:36;4.65;;;2.20;;
35693;SDS011;21812;55.536;37.664;2023-07-13T07:48:03;2.65;;;2.03;;
35693;SDS011;21812;55.536;37.664;2023-07-13T07:50:30;5.43;;;1.90;;
35693;SDS011;21812;55.536;37.664;2023-07-13T07:52:56;5.60;;;1.95;;
35693;SDS011;21812;55.536;37.664;2023-07-13T07:55:22;4.15;;;2.00;;
35693;SDS011;21812;55.536;37.664;2023-07-13T07:57:49;2.47;;;1.88;;
35693;SDS011;21812;55.536;37.664;2023-07-13T08:00:15;4.00;;;1.70;;
35693;SDS011;21812;55.536;37.664;2023-07-13T08:02:42;3.00;;;1.80;;
35693;SDS011;21812;55.536;37.664;2023-07-13T08:05:09;6.85;;;1.60;;
35693;SDS011;21812;55.536;37.664;2023-07-13T08:07:36;3.30;;;1.77;;
35693;SDS011;21812;55.536;37.664;2023-07-13T08:10:03;7.05;;;2.92;;
35693;SDS011;21812;55.536;37.664;2023-07-13T08:12:33;5.43;;;1.92;;
35693;SDS011;21812;55.536;37.664;2023-07-13T08:14:59;2.28;;;1.73;;
35693;SDS011;21812;55.536;37.664;2023-07-13T08:17:26;2.67;;;1.75;;
35693;SDS011;21812;55.536;37.664;2023-07-13T08:19:52;3.33;;;1.60;;
35693;SDS011;21812;55.536;37.664;2023-07-13T08:22:18;4.43;;;1.80;;
35693;SDS011;21812;55.536;37.664;2023-07-13T08:24:44;3.75;;;1.73;;
35693;SDS011;21812;55.536;37.664;2023-07-13T08:27:11;2.97;;;1.60;;
35693;SDS011;21812;55.536;37.664;2023-07-13T08:29:37;3.30;;;1.63;;
35693;SDS011;21812;55.536;37.664;2023-07-13T08:32:04;6.93;;;1.88;;
35693;SDS011;21812;55.536;37.664;2023-07-13T08:34:31;4.82;;;2.13;;
35693;SDS011;21812;55.536;37.664;2023-07-13T08:36:56;4.18;;;1.67;;
35693;SDS011;21812;55.536;37.664;2023-07-13T08:39:22;10.18;;;2.30;;
35693;SDS011;21812;55.536;37.664;2023-07-13T08:41:49;5.85;;;1.85;;
35693;SDS011;21812;55.536;37.664;2023-07-13T08:44:25;2.08;;;1.60;;
35693;SDS011;21812;55.536;37.664;2023-07-13T08:47:01;1.83;;;1.60;;
35693;SDS011;21812;55.536;37.664;2023-07-13T08:49:28;2.28;;;1.85;;
35693;SDS011;21812;55.536;37.664;2023-07-13T08:51:59;2.55;;;1.70;;
35693;SDS011;21812;55.536;37.664;2023-07-13T08:57:14;4.20;;;2.08;;
35693;SDS011;21812;55.536;37.664;2023-07-13T08:59:42;3.40;;;2.25;;
35693;SDS011;21812;55.536;37.664;2023-07-13T09:05:04;4.10;;;2.08;;
35693;SDS011;21812;55.536;37.664;2023-07-13T09:08:00;4.60;;;2.80;;
35693;SDS011;21812;55.536;37.664;2023-07-13T09:10:46;4.65;;;2.60;;
35693;SDS011;21812;55.536;37.664;2023-07-13T09:13:23;3.42;;;2.53;;
35693;SDS011;21812;55.536;37.664;2023-07-13T09:16:02;2.63;;;1.90;;
35693;SDS011;21812;55.536;37.664;2023-07-13T09:21:04;4.00;;;2.75;;
35693;SDS011;21812;55.536;37.664;2023-07-13T09:23:35;3.40;;;1.80;;
35693;SDS011;21812;55.536;37.664;2023-07-13T09:26:07;4.95;;;2.63;;
35693;SDS011;21812;55.536;37.664;2023-07-13T09:28:45;4.45;;;2.10;;
35693;SDS011;21812;55.536;37.664;2023-07-13T09:31:15;6.15;;;3.25;;
35693;SDS011;21812;55.536;37.664;2023-07-13T09:33:44;5.22;;;2.17;;
35693;SDS011;21812;55.536;37.664;2023-07-13T09:36:30;4.60;;;2.28;;
35693;SDS011;21812;55.536;37.664;2023-07-13T09:46:38;2.70;;;2.20;;
35693;SDS011;21812;55.536;37.664;2023-07-13T09:49:07;5.07;;;2.67;;
35693;SDS011;21812;55.536;37.664;2023-07-13T09:51:35;3.70;;;2.53;;
35693;SDS011;21812;55.536;37.664;2023-07-13T09:54:02;5.07;;;2.25;;
35693;SDS011;21812;55.536;37.664;2023-07-13T09:56:28;3.67;;;2.08;;
35693;SDS011;21812;55.536;37.664;2023-07-13T09:58:55;6.13;;;2.33;;
35693;SDS011;21812;55.536;37.664;2023-07-13T10:01:36;6.03;;;2.33;;
35693;SDS011;21812;55.536;37.664;2023-07-13T10:04:12;8.48;;;2.75;;
35693;SDS011;21812;55.536;37.664;2023-07-13T10:06:40;5.50;;;2.47;;
35693;SDS011;21812;55.536;37.664;2023-07-13T10:09:08;5.25;;;2.60;;
35693;SDS011;21812;55.536;37.664;2023-07-13T10:11:35;3.92;;;2.58;;
35693;SDS011;21812;55.536;37.664;2023-07-13T10:14:03;3.15;;;2.47;;
35693;SDS011;21812;55.536;37.664;2023-07-13T10:16:44;4.75;;;2.53;;
35693;SDS011;21812;55.536;37.664;2023-07-13T10:19:32;4.93;;;2.25;;
35693;SDS011;21812;55.536;37.664;2023-07-13T10:22:00;3.75;;;2.63;;
35693;SDS011;21812;55.536;37.664;2023-07-13T10:24:35;7.22;;;2.33;;
35693;SDS011;21812;55.536;37.664;2023-07-13T10:29:45;5.70;;;2.92;;
35693;SDS011;21812;55.536;37.664;2023-07-13T10:32:14;3.65;;;2.63;;
35693;SDS011;21812;55.536;37.664;2023-07-13T10:34:40;4.97;;;2.60;;
35693;SDS011;21812;55.536;37.664;2023-07-13T10:37:16;5.28;;;2.88;;
35693;SDS011;21812;55.536;37.664;2023-07-13T10:39:46;12.57;;;3.50;;
35693;SDS011;21812;55.536;37.664;2023-07-13T10:42:14;2.58;;;2.38;;
35693;SDS011;21812;55.536;37.664;2023-07-13T10:44:43;3.58;;;2.63;;
35693;SDS011;21812;55.536;37.664;2023-07-13T10:47:13;5.10;;;3.00;;
35693;SDS011;21812;55.536;37.664;2023-07-13T10:49:43;5.60;;;2.58;;
35693;SDS011;21812;55.536;37.664;2023-07-13T10:55:02;5.40;;;2.80;;
35693;SDS011;21812;55.536;37.664;2023-07-13T10:57:29;4.97;;;2.65;;
35693;SDS011;21812;55.536;37.664;2023-07-13T11:02:31;5.80;;;2.90;;
35693;SDS011;21812;55.536;37.664;2023-07-13T11:04:57;5.38;;;3.05;;
35693;SDS011;21812;55.536;37.664;2023-07-13T11:07:27;5.88;;;2.97;;
35693;SDS011;21812;55.536;37.664;2023-07-13T11:09:56;5.40;;;3.05;;
35693;SDS011;21812;55.536;37.664;2023-07-13T11:22:43;3.88;;;2.42;;
35693;SDS011;21812;55.536;37.664;2023-07-13T11:25:31;5.03;;;3.03;;
35693;SDS011;21812;55.536;37.664;2023-07-13T11:28:07;7.50;;;2.78;;
35693;SDS011;21812;55.536;37.664;2023-07-13T11:33:23;5.57;;;2.72;;
35693;SDS011;21812;55.536;37.664;2023-07-13T11:35:57;6.15;;;2.70;;
35693;SDS011;21812;55.536;37.664;2023-07-13T11:38:33;10.35;;;2.65;;
35693;SDS011;21812;55.536;37.664;2023-07-13T11:41:01;4.75;;;2.75;;
35693;SDS011;21812;55.536;37.664;2023-07-13T11:43:40;3.38;;;2.20;;
35693;SDS011;21812;55.536;37.664;2023-07-13T11:46:17;3.83;;;2.65;;
35693;SDS011;21812;55.536;37.664;2023-07-13T11:48:46;5.10;;;2.78;;
35693;SDS011;21812;55.536;37.664;2023-07-13T11:51:16;4.10;;;3.20;;
35693;SDS011;21812;55.536;37.664;2023-07-13T11:53:47;4.13;;;2.65;;
35693;SDS011;21812;55.536;37.664;2023-07-13T11:56:15;5.50;;;2.95;;
35693;SDS011;21812;55.536;37.664;2023-07-13T11:58:41;6.00;;;3.10;;
35693;SDS011;21812;55.536;37.664;2023-07-13T12:01:10;4.28;;;3.13;;
35693;SDS011;21812;55.536;37.664;2023-07-13T12:03:43;7.05;;;3.92;;
35693;SDS011;21812;55.536;37.664;2023-07-13T12:06:30;3.80;;;2.78;;
35693;SDS011;21812;55.536;37.664;2023-07-13T12:08:58;6.57;;;3.22;;
35693;SDS011;21812;55.536;37.664;2023-07-13T12:11:26;4.95;;;3.47;;
35693;SDS011;21812;55.536;37.664;2023-07-13T12:13:52;4.65;;;2.50;;
35693;SDS011;21812;55.536;37.664;2023-07-13T12:18:52;4.55;;;2.75;;
35693;SDS011;21812;55.536;37.664;2023-07-13T12:21:18;4.68;;;2.40;;
35693;SDS011;21812;55.536;37.664;2023-07-13T12:23:47;4.15;;;2.78;;
35693;SDS011;21812;55.536;37.664;2023-07-13T12:26:14;2.55;;;2.13;;
35693;SDS011;21812;55.536;37.664;2023-07-13T12:28:53;3.17;;;2.10;;
35693;SDS011;21812;55.536;37.664;2023-07-13T12:31:24;5.78;;;2.67;;
35693;SDS011;21812;55.536;37.664;2023-07-13T12:33:59;4.85;;;2.85;;
35693;SDS011;21812;55.536;37.664;2023-07-13T12:36:35;5.47;;;3.05;;
35693;SDS011;21812;55.536;37.664;2023-07-13T12:39:23;5.28;;;2.67;;
35693;SDS011;21812;55.536;37.664;2023-07-13T12:41:49;3.28;;;2.00;;
35693;SDS011;21812;55.536;37.664;2023-07-13T12:44:18;4.80;;;4.05;;
35693;SDS011;21812;55.536;37.664;2023-07-13T12:46:59;6.30;;;2.25;;
35693;SDS011;21812;55.536;37.664;2023-07-13T12:49:31;4.28;;;2.53;;
35693;SDS011;21812;55.536;37.664;2023-07-13T12:52:02;4.63;;;2.47;;
35693;SDS011;21812;55.536;37.664;2023-07-13T12:54:30;5.10;;;2.20;;
35693;SDS011;21812;55.536;37.664;2023-07-13T12:56:57;9.32;;;2.60;;
35693;SDS011;21812;55.536;37.664;2023-07-13T12:59:25;7.10;;;2.60;;
35693;SDS011;21812;55.536;37.664;2023-07-13T13:01:55;5.45;;;2.55;;
35693;SDS011;21812;55.536;37.664;2023-07-13T13:04:21;12.90;;;3.58;;
35693;SDS011;21812;55.536;37.664;2023-07-13T13:06:48;3.67;;;2.40;;
35693;SDS011;21812;55.536;37.664;2023-07-13T13:09:25;8.57;;;4.10;;
35693;SDS011;21812;55.536;37.664;2023-07-13T13:11:51;5.35;;;3.00;;
35693;SDS011;21812;55.536;37.664;2023-07-13T13:14:17;3.47;;;2.50;;
35693;SDS011;21812;55.536;37.664;2023-07-13T13:16:47;4.68;;;2.97;;
35693;SDS011;21812;55.536;37.664;2023-07-13T13:21:42;6.68;;;2.90;;
35693;SDS011;21812;55.536;37.664;2023-07-13T13:24:16;6.53;;;3.00;;
35693;SDS011;21812;55.536;37.664;2023-07-13T13:26:45;3.85;;;2.50;;
35693;SDS011;21812;55.536;37.664;2023-07-13T13:29:17;8.60;;;2.65;;
35693;SDS011;21812;55.536;37.664;2023-07-13T13:31:45;4.38;;;2.13;;
35693;SDS011;21812;55.536;37.664;2023-07-13T13:34:12;4.57;;;2.70;;
35693;SDS011;21812;55.536;37.664;2023-07-13T13:36:40;6.78;;;3.47;;
35693;SDS011;21812;55.536;37.664;2023-07-13T13:39:16;8.07;;;2.92;;
35693;SDS011;21812;55.536;37.664;2023-07-13T13:41:49;6.13;;;2.55;;
35693;SDS011;21812;55.536;37.664;2023-07-13T13:44:17;5.70;;;3.03;;
35693;SDS011;21812;55.536;37.664;2023-07-13T13:46:44;7.88;;;3.30;;
35693;SDS011;21812;55.536;37.664;2023-07-13T13:49:21;5.40;;;3.35;;
35693;SDS011;21812;55.536;37.664;2023-07-13T13:51:49;10.18;;;3.65;;
35693;SDS011;21812;55.536;37.664;2023-07-13T13:54:16;5.90;;;3.17;;
35693;SDS011;21812;55.536;37.664;2023-07-13T13:56:43;3.13;;;2.22;;
35693;SDS011;21812;55.536;37.664;2023-07-13T13:59:10;10.88;;;3.75;;
35693;SDS011;21812;55.536;37.664;2023-07-13T14:01:37;6.03;;;2.92;;
35693;SDS011;21812;55.536;37.664;2023-07-13T14:04:03;3.95;;;3.22;;
35693;SDS011;21812;55.536;37.664;2023-07-13T14:06:31;6.32;;;3.10;;
35693;SDS011;21812;55.536;37.664;2023-07-13T14:08:58;5.95;;;2.90;;
35693;SDS011;21812;55.536;37.664;2023-07-13T14:11:25;11.32;;;3.00;;
35693;SDS011;21812;55.536;37.664;2023-07-13T14:13:52;3.28;;;2.47;;
35693;SDS011;21812;55.536;37.664;2023-07-13T14:16:21;6.43;;;2.75;;
35693;SDS011;21812;55.536;37.664;2023-07-13T14:18:53;5.83;;;2.90;;
35693;SDS011;21812;55.536;37.664;2023-07-13T14:21:22;6.25;;;2.50;;
35693;SDS011;21812;55.536;37.664;2023-07-13T14:23:48;4.75;;;2.90;;
35693;SDS011;21812;55.536;37.664;2023-07-13T14:26:21;3.63;;;2.65;;
35693;SDS011;21812;55.536;37.664;2023-07-13T14:28:49;3.45;;;2.50;;
35693;SDS011;21812;55.536;37.664;2023-07-13T14:31:17;6.13;;;2.63;;
35693;SDS011;21812;55.536;37.664;2023-07-13T14:33:43;5.20;;;2.72;;
35693;SDS011;21812;55.536;37.664;2023-07-13T14:36:26;4.30;;;2.35;;
35693;SDS011;21812;55.536;37.664;2023-07-13T14:38:52;3.53;;;2.47;;
35693;SDS011;21812;55.536;37.664;2023-07-13T14:41:19;3.75;;;2.47;;
35693;SDS011;21812;55.536;37.664;2023-07-13T14:43:46;4.88;;;2.72;;
35693;SDS011;21812;55.536;37.664;2023-07-13T14:46:33;2.55;;;2.33;;
35693;SDS011;21812;55.536;37.664;2023-07-13T14:49:09;5.63;;;2.60;;
35693;SDS011;21812;55.536;37.664;2023-07-13T14:51:55;4.55;;;3.00;;
35693;SDS011;21812;55.536;37.664;2023-07-13T14:54:23;6.88;;;2.72;;
35693;SDS011;21812;55.536;37.664;2023-07-13T14:56:49;5.07;;;2.38;;
35693;SDS011;21812;55.536;37.664;2023-07-13T14:59:16;8.57;;;2.90;;
35693;SDS011;21812;55.536;37.664;2023-07-13T15:01:44;3.92;;;2.45;;
35693;SDS011;21812;55.536;37.664;2023-07-13T15:04:11;9.10;;;5.15;;
35693;SDS011;21812;55.536;37.664;2023-07-13T15:07:00;5.13;;;3.15;;
35693;SDS011;21812;55.536;37.664;2023-07-13T15:09:28;7.97;;;3.38;;
35693;SDS011;21812;55.536;37.664;2023-07-13T15:11:57;5.20;;;2.75;;
35693;SDS011;21812;55.536;37.664;2023-07-13T15:14:24;4.13;;;2.58;;
35693;SDS011;21812;55.536;37.664;2023-07-13T15:16:52;9.98;;;2.35;;
35693;SDS011;21812;55.536;37.664;2023-07-13T15:19:21;8.25;;;2.63;;
35693;SDS011;21812;55.536;37.664;2023-07-13T15:21:49;7.32;;;2.58;;
35693;SDS011;21812;55.536;37.664;2023-07-13T15:24:17;6.38;;;2.85;;
35693;SDS011;21812;55.536;37.664;2023-07-13T15:26:43;7.75;;;4.30;;
35693;SDS011;21812;55.536;37.664;2023-07-13T15:29:15;14.38;;;8.70;;